sensor_id;sensor_type;location;lat;lon;timestamp;P1;durP1;ratioP1;P2;durP2;ratioP2
77055;SDS011;67471;44.918;8.614;2023-04-15T00:00:20;6.63;;;2.10;;
77055;SDS011;67471;44.918;8.614;2023-04-15T00:03:24;8.05;;;3.55;;
77055;SDS011;67471;44.918;8.614;2023-04-15T00:06:27;8.73;;;1.55;;
77055;SDS011;67471;44.918;8.614;2023-04-15T00:09:31;4.72;;;1.90;;
77055;SDS011;67471;44.918;8.614;2023-04-15T00:12:35;7.15;;;1.65;;
77055;SDS011;67471;44.918;8.614;2023-04-15T00:15:39;10.45;;;2.30;;
77055;SDS011;67471;44.918;8.614;2023-04-15T00:18:43;6.28;;;2.08;;
77055;SDS011;67471;44.918;8.614;2023-04-15T00:21:47;7.60;;;2.08;;
77055;SDS011;67471;44.918;8.614;2023-04-15T00:24:51;9.45;;;2.55;;
77055;SDS011;67471;44.918;8.614;2023-04-15T00:27:56;4.97;;;2.10;;
77055;SDS011;67471;44.918;8.614;2023-04-15T00:31:00;9.45;;;2.45;;
77055;SDS011;67471;44.918;8.614;2023-04-15T00:34:04;9.38;;;2.90;;
77055;SDS011;67471;44.918;8.614;2023-04-15T00:37:08;9.52;;;2.22;;
77055;SDS011;67471;44.918;8.614;2023-04-15T00:40:12;13.93;;;3.42;;
77055;SDS011;67471;44.918;8.614;2023-04-15T00:43:20;7.22;;;2.22;;
77055;SDS011;67471;44.918;8.614;2023-04-15T00:46:24;7.30;;;2.40;;
77055;SDS011;67471;44.918;8.614;2023-04-15T00:49:31;8.15;;;1.92;;
77055;SDS011;67471;44.918;8.614;2023-04-15T00:52:35;7.32;;;1.90;;
77055;SDS011;67471;44.918;8.614;2023-04-15T00:55:40;4.95;;;2.35;;
77055;SDS011;67471;44.918;8.614;2023-04-15T00:58:44;9.55;;;2.03;;
77055;SDS011;67471;44.918;8.614;2023-04-15T01:01:48;5.22;;;1.58;;
77055;SDS011;67471;44.918;8.614;2023-04-15T01:04:52;5.85;;;2.88;;
77055;SDS011;67471;44.918;8.614;2023-04-15T01:07:56;12.68;;;3.15;;
77055;SDS011;67471;44.918;8.614;2023-04-15T01:11:00;8.52;;;2.50;;
77055;SDS011;67471;44.918;8.614;2023-04-15T01:14:06;8.00;;;3.60;;
77055;SDS011;67471;44.918;8.614;2023-04-15T01:17:11;11.95;;;2.97;;
77055;SDS011;67471;44.918;8.614;2023-04-15T01:20:17;12.27;;;2.78;;
77055;SDS011;67471;44.918;8.614;2023-04-15T01:23:21;6.22;;;2.58;;
77055;SDS011;67471;44.918;8.614;2023-04-15T01:26:28;11.20;;;4.20;;
77055;SDS011;67471;44.918;8.614;2023-04-15T01:29:34;8.10;;;2.00;;
77055;SDS011;67471;44.918;8.614;2023-04-15T01:32:42;11.95;;;1.98;;
77055;SDS011;67471;44.918;8.614;2023-04-15T01:36:05;10.57;;;1.77;;
77055;SDS011;67471;44.918;8.614;2023-04-15T01:39:10;14.85;;;2.60;;
77055;SDS011;67471;44.918;8.614;2023-04-15T01:42:14;14.75;;;3.13;;
77055;SDS011;67471;44.918;8.614;2023-04-15T01:45:20;9.52;;;2.65;;
77055;SDS011;67471;44.918;8.614;2023-04-15T01:48:26;8.18;;;2.55;;
77055;SDS011;67471;44.918;8.614;2023-04-15T01:51:31;10.40;;;2.10;;
77055;SDS011;67471;44.918;8.614;2023-04-15T01:54:36;6.45;;;2.00;;
77055;SDS011;67471;44.918;8.614;2023-04-15T01:57:41;7.50;;;2.45;;
77055;SDS011;67471;44.918;8.614;2023-04-15T02:00:46;7.28;;;2.45;;
77055;SDS011;67471;44.918;8.614;2023-04-15T02:03:51;12.60;;;2.72;;
77055;SDS011;67471;44.918;8.614;2023-04-15T02:06:56;13.73;;;3.08;;
77055;SDS011;67471;44.918;8.614;2023-04-15T02:10:01;9.23;;;2.20;;
77055;SDS011;67471;44.918;8.614;2023-04-15T02:13:06;5.68;;;1.65;;
77055;SDS011;67471;44.918;8.614;2023-04-15T02:16:17;5.82;;;1.95;;
77055;SDS011;67471;44.918;8.614;2023-04-15T02:19:23;8.20;;;2.40;;
77055;SDS011;67471;44.918;8.614;2023-04-15T02:22:28;7.10;;;2.13;;
77055;SDS011;67471;44.918;8.614;2023-04-15T02:25:33;13.70;;;2.50;;
77055;SDS011;67471;44.918;8.614;2023-04-15T02:28:39;6.05;;;1.90;;
77055;SDS011;67471;44.918;8.614;2023-04-15T02:31:44;7.60;;;2.55;;
77055;SDS011;67471;44.918;8.614;2023-04-15T02:34:49;8.73;;;2.13;;
77055;SDS011;67471;44.918;8.614;2023-04-15T02:37:55;6.65;;;1.90;;
77055;SDS011;67471;44.918;8.614;2023-04-15T02:41:00;8.25;;;2.53;;
77055;SDS011;67471;44.918;8.614;2023-04-15T02:44:06;6.13;;;2.60;;
77055;SDS011;67471;44.918;8.614;2023-04-15T02:47:13;6.95;;;2.17;;
77055;SDS011;67471;44.918;8.614;2023-04-15T02:50:20;9.98;;;2.40;;
77055;SDS011;67471;44.918;8.614;2023-04-15T02:53:27;3.75;;;2.08;;
77055;SDS011;67471;44.918;8.614;2023-04-15T02:56:31;5.57;;;2.40;;
77055;SDS011;67471;44.918;8.614;2023-04-15T02:59:36;8.98;;;2.42;;
77055;SDS011;67471;44.918;8.614;2023-04-15T03:02:42;9.10;;;2.90;;
77055;SDS011;67471;44.918;8.614;2023-04-15T03:05:48;5.15;;;2.42;;
77055;SDS011;67471;44.918;8.614;2023-04-15T03:08:52;7.40;;;2.58;;
77055;SDS011;67471;44.918;8.614;2023-04-15T03:11:58;10.85;;;3.00;;
77055;SDS011;67471;44.918;8.614;2023-04-15T03:15:03;8.35;;;2.58;;
77055;SDS011;67471;44.918;8.614;2023-04-15T03:18:15;7.70;;;2.25;;
77055;SDS011;67471;44.918;8.614;2023-04-15T03:21:20;5.88;;;1.83;;
77055;SDS011;67471;44.918;8.614;2023-04-15T03:24:27;4.30;;;1.85;;
77055;SDS011;67471;44.918;8.614;2023-04-15T03:27:34;5.15;;;1.80;;
77055;SDS011;67471;44.918;8.614;2023-04-15T03:30:41;7.53;;;2.10;;
77055;SDS011;67471;44.918;8.614;2023-04-15T03:33:47;10.18;;;1.80;;
77055;SDS011;67471;44.918;8.614;2023-04-15T03:36:52;3.75;;;1.70;;
77055;SDS011;67471;44.918;8.614;2023-04-15T03:39:57;8.95;;;1.98;;
77055;SDS011;67471;44.918;8.614;2023-04-15T03:43:01;7.63;;;2.22;;
77055;SDS011;67471;44.918;8.614;2023-04-15T03:46:06;4.45;;;2.20;;
77055;SDS011;67471;44.918;8.614;2023-04-15T03:49:12;6.68;;;1.83;;
77055;SDS011;67471;44.918;8.614;2023-04-15T03:52:17;9.32;;;2.42;;
77055;SDS011;67471;44.918;8.614;2023-04-15T03:55:23;8.43;;;2.35;;
77055;SDS011;67471;44.918;8.614;2023-04-15T03:58:29;8.70;;;2.40;;
77055;SDS011;67471;44.918;8.614;2023-04-15T04:01:34;8.10;;;2.10;;
77055;SDS011;67471;44.918;8.614;2023-04-15T04:04:39;5.72;;;2.40;;
77055;SDS011;67471;44.918;8.614;2023-04-15T04:07:44;9.07;;;2.35;;
77055;SDS011;67471;44.918;8.614;2023-04-15T04:10:50;7.57;;;2.53;;
77055;SDS011;67471;44.918;8.614;2023-04-15T04:13:55;4.18;;;2.10;;
77055;SDS011;67471;44.918;8.614;2023-04-15T04:17:00;5.72;;;2.53;;
77055;SDS011;67471;44.918;8.614;2023-04-15T04:20:05;7.53;;;2.85;;
77055;SDS011;67471;44.918;8.614;2023-04-15T04:23:10;5.40;;;2.80;;
77055;SDS011;67471;44.918;8.614;2023-04-15T04:26:15;9.93;;;2.83;;
77055;SDS011;67471;44.918;8.614;2023-04-15T04:29:20;7.72;;;2.40;;
77055;SDS011;67471;44.918;8.614;2023-04-15T04:32:25;10.00;;;3.05;;
77055;SDS011;67471;44.918;8.614;2023-04-15T04:35:29;8.70;;;3.92;;
77055;SDS011;67471;44.918;8.614;2023-04-15T04:38:37;10.77;;;3.30;;
77055;SDS011;67471;44.918;8.614;2023-04-15T04:41:43;7.68;;;3.28;;
77055;SDS011;67471;44.918;8.614;2023-04-15T04:44:48;11.48;;;3.40;;
77055;SDS011;67471;44.918;8.614;2023-04-15T04:47:53;7.57;;;2.72;;
77055;SDS011;67471;44.918;8.614;2023-04-15T04:50:58;13.07;;;3.33;;
77055;SDS011;67471;44.918;8.614;2023-04-15T04:54:03;7.75;;;2.90;;
77055;SDS011;67471;44.918;8.614;2023-04-15T04:57:08;8.55;;;4.13;;
77055;SDS011;67471;44.918;8.614;2023-04-15T05:00:13;6.57;;;2.95;;
77055;SDS011;67471;44.918;8.614;2023-04-15T05:03:18;11.88;;;3.10;;
77055;SDS011;67471;44.918;8.614;2023-04-15T05:06:23;4.50;;;2.65;;
77055;SDS011;67471;44.918;8.614;2023-04-15T05:09:28;6.63;;;2.42;;
77055;SDS011;67471;44.918;8.614;2023-04-15T05:12:35;6.20;;;2.55;;
77055;SDS011;67471;44.918;8.614;2023-04-15T05:15:42;8.73;;;2.42;;
77055;SDS011;67471;44.918;8.614;2023-04-15T05:18:47;10.15;;;3.10;;
77055;SDS011;67471;44.918;8.614;2023-04-15T05:21:52;7.40;;;2.70;;
77055;SDS011;67471;44.918;8.614;2023-04-15T05:24:57;7.22;;;2.80;;
77055;SDS011;67471;44.918;8.614;2023-04-15T05:28:01;11.52;;;3.38;;
77055;SDS011;67471;44.918;8.614;2023-04-15T05:31:06;11.40;;;3.70;;
77055;SDS011;67471;44.918;8.614;2023-04-15T05:34:12;7.88;;;2.90;;
77055;SDS011;67471;44.918;8.614;2023-04-15T05:37:19;6.80;;;2.75;;
77055;SDS011;67471;44.918;8.614;2023-04-15T05:40:24;6.45;;;2.50;;
77055;SDS011;67471;44.918;8.614;2023-04-15T05:43:30;5.68;;;2.78;;
77055;SDS011;67471;44.918;8.614;2023-04-15T05:46:35;8.32;;;2.50;;
77055;SDS011;67471;44.918;8.614;2023-04-15T05:49:40;11.00;;;3.60;;
77055;SDS011;67471;44.918;8.614;2023-04-15T05:52:44;4.90;;;2.45;;
77055;SDS011;67471;44.918;8.614;2023-04-15T05:55:50;6.50;;;2.88;;
77055;SDS011;67471;44.918;8.614;2023-04-15T05:58:55;7.43;;;2.67;;
77055;SDS011;67471;44.918;8.614;2023-04-15T06:02:00;4.40;;;2.70;;
77055;SDS011;67471;44.918;8.614;2023-04-15T06:05:05;6.75;;;2.58;;
77055;SDS011;67471;44.918;8.614;2023-04-15T06:08:13;6.72;;;2.60;;
77055;SDS011;67471;44.918;8.614;2023-04-15T06:11:21;10.07;;;2.90;;
77055;SDS011;67471;44.918;8.614;2023-04-15T06:14:27;8.93;;;3.30;;
77055;SDS011;67471;44.918;8.614;2023-04-15T06:17:32;5.53;;;2.78;;
77055;SDS011;67471;44.918;8.614;2023-04-15T06:20:36;7.70;;;2.63;;
77055;SDS011;67471;44.918;8.614;2023-04-15T06:23:42;6.45;;;2.88;;
77055;SDS011;67471;44.918;8.614;2023-04-15T06:26:47;4.53;;;2.33;;
77055;SDS011;67471;44.918;8.614;2023-04-15T06:29:53;9.52;;;2.92;;
77055;SDS011;67471;44.918;8.614;2023-04-15T06:32:58;7.50;;;2.78;;
77055;SDS011;67471;44.918;8.614;2023-04-15T06:36:03;6.78;;;2.92;;
77055;SDS011;67471;44.918;8.614;2023-04-15T06:39:09;6.55;;;2.80;;
77055;SDS011;67471;44.918;8.614;2023-04-15T06:42:14;5.28;;;2.22;;
77055;SDS011;67471;44.918;8.614;2023-04-15T06:45:18;9.00;;;2.58;;
77055;SDS011;67471;44.918;8.614;2023-04-15T06:48:24;7.28;;;2.90;;
77055;SDS011;67471;44.918;8.614;2023-04-15T06:51:30;7.95;;;2.90;;
77055;SDS011;67471;44.918;8.614;2023-04-15T06:54:35;7.55;;;2.80;;
77055;SDS011;67471;44.918;8.614;2023-04-15T06:57:40;5.53;;;2.80;;
77055;SDS011;67471;44.918;8.614;2023-04-15T07:00:45;6.20;;;2.42;;
77055;SDS011;67471;44.918;8.614;2023-04-15T07:03:51;6.70;;;3.15;;
77055;SDS011;67471;44.918;8.614;2023-04-15T07:06:56;7.88;;;3.28;;
77055;SDS011;67471;44.918;8.614;2023-04-15T07:10:01;6.47;;;2.60;;
77055;SDS011;67471;44.918;8.614;2023-04-15T07:13:06;7.20;;;2.63;;
77055;SDS011;67471;44.918;8.614;2023-04-15T07:16:12;7.78;;;2.30;;
77055;SDS011;67471;44.918;8.614;2023-04-15T07:19:18;7.68;;;3.40;;
77055;SDS011;67471;44.918;8.614;2023-04-15T07:22:23;8.18;;;3.00;;
77055;SDS011;67471;44.918;8.614;2023-04-15T07:25:28;7.68;;;2.97;;
77055;SDS011;67471;44.918;8.614;2023-04-15T07:28:33;7.22;;;3.60;;
77055;SDS011;67471;44.918;8.614;2023-04-15T07:31:38;9.23;;;3.13;;
77055;SDS011;67471;44.918;8.614;2023-04-15T07:34:45;10.55;;;3.83;;
77055;SDS011;67471;44.918;8.614;2023-04-15T07:37:50;6.88;;;3.03;;
77055;SDS011;67471;44.918;8.614;2023-04-15T07:40:55;5.60;;;3.10;;
77055;SDS011;67471;44.918;8.614;2023-04-15T07:44:01;7.68;;;3.05;;
77055;SDS011;67471;44.918;8.614;2023-04-15T07:47:06;11.02;;;3.53;;
77055;SDS011;67471;44.918;8.614;2023-04-15T07:50:11;9.70;;;3.08;;
77055;SDS011;67471;44.918;8.614;2023-04-15T07:53:16;7.53;;;3.85;;
77055;SDS011;67471;44.918;8.614;2023-04-15T07:56:20;8.73;;;3.72;;
77055;SDS011;67471;44.918;8.614;2023-04-15T07:59:26;7.47;;;3.05;;
77055;SDS011;67471;44.918;8.614;2023-04-15T08:02:33;10.65;;;3.17;;
77055;SDS011;67471;44.918;8.614;2023-04-15T08:05:38;5.70;;;2.70;;
77055;SDS011;67471;44.918;8.614;2023-04-15T08:08:43;10.35;;;6.07;;
77055;SDS011;67471;44.918;8.614;2023-04-15T08:11:48;8.23;;;2.80;;
77055;SDS011;67471;44.918;8.614;2023-04-15T08:14:54;10.27;;;4.82;;
77055;SDS011;67471;44.918;8.614;2023-04-15T08:18:00;9.30;;;3.00;;
77055;SDS011;67471;44.918;8.614;2023-04-15T08:21:05;7.68;;;2.70;;
77055;SDS011;67471;44.918;8.614;2023-04-15T08:24:10;14.85;;;4.07;;
77055;SDS011;67471;44.918;8.614;2023-04-15T08:27:16;10.90;;;4.78;;
77055;SDS011;67471;44.918;8.614;2023-04-15T08:30:22;9.90;;;3.65;;
77055;SDS011;67471;44.918;8.614;2023-04-15T08:33:27;11.00;;;3.65;;
77055;SDS011;67471;44.918;8.614;2023-04-15T08:36:32;14.13;;;3.00;;
77055;SDS011;67471;44.918;8.614;2023-04-15T08:39:37;11.18;;;4.97;;
77055;SDS011;67471;44.918;8.614;2023-04-15T08:42:43;15.60;;;4.32;;
77055;SDS011;67471;44.918;8.614;2023-04-15T08:45:51;8.80;;;3.22;;
77055;SDS011;67471;44.918;8.614;2023-04-15T08:48:57;19.33;;;6.97;;
77055;SDS011;67471;44.918;8.614;2023-04-15T08:52:02;10.32;;;3.38;;
77055;SDS011;67471;44.918;8.614;2023-04-15T08:55:07;13.68;;;5.43;;
77055;SDS011;67471;44.918;8.614;2023-04-15T08:58:14;15.63;;;5.70;;
77055;SDS011;67471;44.918;8.614;2023-04-15T09:01:20;8.57;;;3.40;;
77055;SDS011;67471;44.918;8.614;2023-04-15T09:04:25;12.05;;;4.18;;
77055;SDS011;67471;44.918;8.614;2023-04-15T09:07:34;8.80;;;4.75;;
77055;SDS011;67471;44.918;8.614;2023-04-15T09:10:40;10.32;;;3.00;;
77055;SDS011;67471;44.918;8.614;2023-04-15T09:13:45;9.95;;;3.97;;
77055;SDS011;67471;44.918;8.614;2023-04-15T09:17:00;7.90;;;4.22;;
77055;SDS011;67471;44.918;8.614;2023-04-15T09:20:16;10.40;;;5.15;;
77055;SDS011;67471;44.918;8.614;2023-04-15T09:23:24;7.20;;;3.40;;
77055;SDS011;67471;44.918;8.614;2023-04-15T09:29:35;6.03;;;2.10;;
77055;SDS011;67471;44.918;8.614;2023-04-15T09:32:57;9.88;;;2.60;;
77055;SDS011;67471;44.918;8.614;2023-04-15T09:36:04;7.55;;;1.80;;
77055;SDS011;67471;44.918;8.614;2023-04-15T09:39:10;9.18;;;4.07;;
77055;SDS011;67471;44.918;8.614;2023-04-15T09:42:15;7.03;;;1.88;;
77055;SDS011;67471;44.918;8.614;2023-04-15T09:45:27;10.23;;;2.78;;
77055;SDS011;67471;44.918;8.614;2023-04-15T09:48:33;13.38;;;2.38;;
77055;SDS011;67471;44.918;8.614;2023-04-15T09:51:38;8.68;;;1.83;;
77055;SDS011;67471;44.918;8.614;2023-04-15T09:54:43;8.05;;;2.45;;
77055;SDS011;67471;44.918;8.614;2023-04-15T09:57:48;8.07;;;2.28;;
77055;SDS011;67471;44.918;8.614;2023-04-15T10:00:54;8.05;;;2.10;;
77055;SDS011;67471;44.918;8.614;2023-04-15T10:04:03;10.55;;;2.30;;
77055;SDS011;67471;44.918;8.614;2023-04-15T10:07:11;8.98;;;1.67;;
77055;SDS011;67471;44.918;8.614;2023-04-15T10:10:16;12.88;;;2.83;;
77055;SDS011;67471;44.918;8.614;2023-04-15T10:13:22;8.82;;;2.33;;
77055;SDS011;67471;44.918;8.614;2023-04-15T10:16:29;9.63;;;3.80;;
77055;SDS011;67471;44.918;8.614;2023-04-15T10:19:36;11.63;;;3.55;;
77055;SDS011;67471;44.918;8.614;2023-04-15T10:22:42;8.73;;;2.83;;
77055;SDS011;67471;44.918;8.614;2023-04-15T10:25:50;10.43;;;2.80;;
77055;SDS011;67471;44.918;8.614;2023-04-15T10:28:57;7.10;;;2.80;;
77055;SDS011;67471;44.918;8.614;2023-04-15T10:32:03;8.27;;;2.65;;
77055;SDS011;67471;44.918;8.614;2023-04-15T10:35:09;11.00;;;2.55;;
77055;SDS011;67471;44.918;8.614;2023-04-15T10:38:31;8.68;;;2.83;;
77055;SDS011;67471;44.918;8.614;2023-04-15T10:41:52;9.30;;;2.50;;
77055;SDS011;67471;44.918;8.614;2023-04-15T10:45:16;7.78;;;2.85;;
77055;SDS011;67471;44.918;8.614;2023-04-15T10:48:22;7.68;;;2.90;;
77055;SDS011;67471;44.918;8.614;2023-04-15T10:51:29;7.82;;;2.40;;
77055;SDS011;67471;44.918;8.614;2023-04-15T10:54:35;10.05;;;3.30;;
77055;SDS011;67471;44.918;8.614;2023-04-15T10:57:43;10.20;;;3.55;;
77055;SDS011;67471;44.918;8.614;2023-04-15T11:00:52;9.57;;;3.25;;
77055;SDS011;67471;44.918;8.614;2023-04-15T11:03:57;7.10;;;2.88;;
77055;SDS011;67471;44.918;8.614;2023-04-15T11:07:05;8.75;;;2.40;;
77055;SDS011;67471;44.918;8.614;2023-04-15T11:13:25;16.58;;;7.28;;
77055;SDS011;67471;44.918;8.614;2023-04-15T11:16:35;7.57;;;3.20;;
77055;SDS011;67471;44.918;8.614;2023-04-15T11:19:46;8.88;;;3.22;;
77055;SDS011;67471;44.918;8.614;2023-04-15T11:22:54;10.60;;;2.70;;
77055;SDS011;67471;44.918;8.614;2023-04-15T11:26:00;11.23;;;2.97;;
77055;SDS011;67471;44.918;8.614;2023-04-15T11:29:09;11.10;;;3.40;;
77055;SDS011;67471;44.918;8.614;2023-04-15T11:32:21;10.20;;;2.92;;
77055;SDS011;67471;44.918;8.614;2023-04-15T11:35:26;11.98;;;3.50;;
77055;SDS011;67471;44.918;8.614;2023-04-15T11:38:32;6.35;;;2.80;;
77055;SDS011;67471;44.918;8.614;2023-04-15T11:41:40;9.35;;;2.22;;
77055;SDS011;67471;44.918;8.614;2023-04-15T11:44:46;11.35;;;4.35;;
77055;SDS011;67471;44.918;8.614;2023-04-15T11:47:51;10.65;;;2.53;;
77055;SDS011;67471;44.918;8.614;2023-04-15T11:50:57;7.07;;;3.17;;
77055;SDS011;67471;44.918;8.614;2023-04-15T11:54:03;6.57;;;2.40;;
77055;SDS011;67471;44.918;8.614;2023-04-15T11:57:07;6.32;;;2.63;;
77055;SDS011;67471;44.918;8.614;2023-04-15T12:00:11;10.10;;;2.97;;
77055;SDS011;67471;44.918;8.614;2023-04-15T12:03:20;13.30;;;3.13;;
77055;SDS011;67471;44.918;8.614;2023-04-15T12:06:32;8.18;;;2.30;;
77055;SDS011;67471;44.918;8.614;2023-04-15T12:09:41;6.63;;;2.20;;
77055;SDS011;67471;44.918;8.614;2023-04-15T12:12:48;5.32;;;2.00;;
77055;SDS011;67471;44.918;8.614;2023-04-15T12:15:52;10.75;;;2.67;;
77055;SDS011;67471;44.918;8.614;2023-04-15T12:18:58;7.78;;;2.70;;
77055;SDS011;67471;44.918;8.614;2023-04-15T12:22:12;5.20;;;2.60;;
77055;SDS011;67471;44.918;8.614;2023-04-15T12:25:18;6.20;;;2.60;;
77055;SDS011;67471;44.918;8.614;2023-04-15T12:28:22;5.88;;;2.58;;
77055;SDS011;67471;44.918;8.614;2023-04-15T12:31:26;12.98;;;2.88;;
77055;SDS011;67471;44.918;8.614;2023-04-15T12:34:33;8.48;;;2.90;;
77055;SDS011;67471;44.918;8.614;2023-04-15T12:37:39;10.55;;;2.92;;
77055;SDS011;67471;44.918;8.614;2023-04-15T12:40:42;9.52;;;2.78;;
77055;SDS011;67471;44.918;8.614;2023-04-15T12:43:49;9.93;;;2.47;;
77055;SDS011;67471;44.918;8.614;2023-04-15T12:46:52;7.10;;;2.85;;
77055;SDS011;67471;44.918;8.614;2023-04-15T12:49:56;7.28;;;1.95;;
77055;SDS011;67471;44.918;8.614;2023-04-15T12:53:00;7.72;;;1.77;;
77055;SDS011;67471;44.918;8.614;2023-04-15T12:56:05;6.55;;;1.80;;
77055;SDS011;67471;44.918;8.614;2023-04-15T12:59:10;6.70;;;1.50;;
77055;SDS011;67471;44.918;8.614;2023-04-15T13:02:14;5.03;;;1.73;;
77055;SDS011;67471;44.918;8.614;2023-04-15T13:05:18;6.32;;;1.77;;
77055;SDS011;67471;44.918;8.614;2023-04-15T13:08:21;5.30;;;1.40;;
77055;SDS011;67471;44.918;8.614;2023-04-15T13:11:25;9.45;;;1.95;;
77055;SDS011;67471;44.918;8.614;2023-04-15T13:14:29;8.25;;;2.85;;
77055;SDS011;67471;44.918;8.614;2023-04-15T13:17:33;9.32;;;3.63;;
77055;SDS011;67471;44.918;8.614;2023-04-15T13:20:37;11.95;;;4.78;;
77055;SDS011;67471;44.918;8.614;2023-04-15T13:23:41;10.25;;;5.57;;
77055;SDS011;67471;44.918;8.614;2023-04-15T13:26:45;8.32;;;3.92;;
77055;SDS011;67471;44.918;8.614;2023-04-15T13:29:49;7.82;;;4.97;;
77055;SDS011;67471;44.918;8.614;2023-04-15T13:32:53;6.78;;;3.45;;
77055;SDS011;67471;44.918;8.614;2023-04-15T13:35:56;8.00;;;3.58;;
77055;SDS011;67471;44.918;8.614;2023-04-15T13:39:00;10.63;;;4.18;;
77055;SDS011;67471;44.918;8.614;2023-04-15T13:42:05;9.88;;;4.30;;
77055;SDS011;67471;44.918;8.614;2023-04-15T13:45:09;8.27;;;4.43;;
77055;SDS011;67471;44.918;8.614;2023-04-15T13:48:13;9.52;;;3.75;;
77055;SDS011;67471;44.918;8.614;2023-04-15T13:51:16;7.18;;;3.90;;
77055;SDS011;67471;44.918;8.614;2023-04-15T13:54:20;8.75;;;4.03;;
77055;SDS011;67471;44.918;8.614;2023-04-15T13:57:24;7.22;;;3.42;;
77055;SDS011;67471;44.918;8.614;2023-04-15T14:00:28;9.70;;;3.85;;
77055;SDS011;67471;44.918;8.614;2023-04-15T14:03:32;9.07;;;3.45;;
77055;SDS011;67471;44.918;8.614;2023-04-15T14:06:37;6.30;;;3.17;;
77055;SDS011;67471;44.918;8.614;2023-04-15T14:09:42;7.93;;;2.83;;
77055;SDS011;67471;44.918;8.614;2023-04-15T14:12:46;8.98;;;2.88;;
77055;SDS011;67471;44.918;8.614;2023-04-15T14:15:50;10.35;;;3.15;;
77055;SDS011;67471;44.918;8.614;2023-04-15T14:18:53;8.10;;;3.05;;
77055;SDS011;67471;44.918;8.614;2023-04-15T14:21:58;8.63;;;2.72;;
77055;SDS011;67471;44.918;8.614;2023-04-15T14:25:03;7.03;;;2.28;;
77055;SDS011;67471;44.918;8.614;2023-04-15T14:28:07;11.52;;;3.05;;
77055;SDS011;67471;44.918;8.614;2023-04-15T14:31:11;6.20;;;2.60;;
77055;SDS011;67471;44.918;8.614;2023-04-15T14:34:15;7.15;;;2.95;;
77055;SDS011;67471;44.918;8.614;2023-04-15T14:37:19;7.53;;;3.08;;
77055;SDS011;67471;44.918;8.614;2023-04-15T14:40:23;5.70;;;2.65;;
77055;SDS011;67471;44.918;8.614;2023-04-15T14:43:27;7.32;;;3.20;;
77055;SDS011;67471;44.918;8.614;2023-04-15T14:46:31;10.88;;;3.45;;
77055;SDS011;67471;44.918;8.614;2023-04-15T14:49:36;8.75;;;3.10;;
77055;SDS011;67471;44.918;8.614;2023-04-15T14:52:40;6.22;;;2.42;;
77055;SDS011;67471;44.918;8.614;2023-04-15T14:55:44;8.35;;;2.45;;
77055;SDS011;67471;44.918;8.614;2023-04-15T14:58:48;10.90;;;3.08;;
77055;SDS011;67471;44.918;8.614;2023-04-15T15:01:55;5.80;;;2.35;;
77055;SDS011;67471;44.918;8.614;2023-04-15T15:04:59;7.60;;;3.13;;
77055;SDS011;67471;44.918;8.614;2023-04-15T15:08:05;8.40;;;3.83;;
77055;SDS011;67471;44.918;8.614;2023-04-15T15:11:09;9.60;;;2.90;;
77055;SDS011;67471;44.918;8.614;2023-04-15T15:14:13;8.52;;;3.53;;
77055;SDS011;67471;44.918;8.614;2023-04-15T15:17:17;8.85;;;3.35;;
77055;SDS011;67471;44.918;8.614;2023-04-15T15:20:21;8.80;;;3.50;;
77055;SDS011;67471;44.918;8.614;2023-04-15T15:23:25;9.93;;;3.17;;
77055;SDS011;67471;44.918;8.614;2023-04-15T15:26:29;8.55;;;2.63;;
77055;SDS011;67471;44.918;8.614;2023-04-15T15:29:33;9.68;;;2.70;;
77055;SDS011;67471;44.918;8.614;2023-04-15T15:32:38;10.52;;;3.03;;
77055;SDS011;67471;44.918;8.614;2023-04-15T15:35:43;11.05;;;2.25;;
77055;SDS011;67471;44.918;8.614;2023-04-15T15:38:47;7.22;;;2.65;;
77055;SDS011;67471;44.918;8.614;2023-04-15T15:41:50;7.55;;;2.38;;
77055;SDS011;67471;44.918;8.614;2023-04-15T15:44:54;4.00;;;2.05;;
77055;SDS011;67471;44.918;8.614;2023-04-15T15:48:00;10.52;;;2.53;;
77055;SDS011;67471;44.918;8.614;2023-04-15T15:51:04;8.00;;;2.72;;
77055;SDS011;67471;44.918;8.614;2023-04-15T15:54:08;7.70;;;2.10;;
77055;SDS011;67471;44.918;8.614;2023-04-15T15:57:15;7.03;;;2.45;;
77055;SDS011;67471;44.918;8.614;2023-04-15T16:00:21;6.32;;;1.98;;
77055;SDS011;67471;44.918;8.614;2023-04-15T16:03:28;8.63;;;2.88;;
77055;SDS011;67471;44.918;8.614;2023-04-15T16:06:34;6.55;;;2.30;;
77055;SDS011;67471;44.918;8.614;2023-04-15T16:09:38;8.25;;;2.47;;
77055;SDS011;67471;44.918;8.614;2023-04-15T16:12:43;7.78;;;2.17;;
77055;SDS011;67471;44.918;8.614;2023-04-15T16:15:50;5.95;;;1.60;;
77055;SDS011;67471;44.918;8.614;2023-04-15T16:18:57;10.57;;;2.30;;
77055;SDS011;67471;44.918;8.614;2023-04-15T16:22:04;8.38;;;1.92;;
77055;SDS011;67471;44.918;8.614;2023-04-15T16:25:10;6.47;;;1.88;;
77055;SDS011;67471;44.918;8.614;2023-04-15T16:28:16;4.72;;;1.70;;
77055;SDS011;67471;44.918;8.614;2023-04-15T16:31:21;6.05;;;1.90;;
77055;SDS011;67471;44.918;8.614;2023-04-15T16:34:27;5.38;;;1.77;;
77055;SDS011;67471;44.918;8.614;2023-04-15T16:37:31;4.53;;;2.08;;
77055;SDS011;67471;44.918;8.614;2023-04-15T16:40:38;10.23;;;1.90;;
77055;SDS011;67471;44.918;8.614;2023-04-15T16:43:42;8.43;;;2.10;;
77055;SDS011;67471;44.918;8.614;2023-04-15T16:46:45;8.23;;;2.20;;
77055;SDS011;67471;44.918;8.614;2023-04-15T16:49:52;9.25;;;2.45;;
77055;SDS011;67471;44.918;8.614;2023-04-15T16:52:59;7.80;;;2.20;;
77055;SDS011;67471;44.918;8.614;2023-04-15T16:56:03;8.45;;;1.75;;
77055;SDS011;67471;44.918;8.614;2023-04-15T16:59:08;7.75;;;2.05;;
77055;SDS011;67471;44.918;8.614;2023-04-15T17:02:11;4.15;;;1.73;;
77055;SDS011;67471;44.918;8.614;2023-04-15T17:05:16;5.72;;;1.95;;
77055;SDS011;67471;44.918;8.614;2023-04-15T17:08:19;4.75;;;1.80;;
77055;SDS011;67471;44.918;8.614;2023-04-15T17:11:23;5.97;;;1.60;;
77055;SDS011;67471;44.918;8.614;2023-04-15T17:14:28;6.93;;;2.10;;
77055;SDS011;67471;44.918;8.614;2023-04-15T17:17:33;7.65;;;3.25;;
77055;SDS011;67471;44.918;8.614;2023-04-15T17:20:40;8.10;;;1.83;;
77055;SDS011;67471;44.918;8.614;2023-04-15T17:23:44;7.47;;;2.50;;
77055;SDS011;67471;44.918;8.614;2023-04-15T17:26:52;9.37;;;4.17;;
77055;SDS011;67471;44.918;8.614;2023-04-15T17:30:05;9.93;;;4.28;;
77055;SDS011;67471;44.918;8.614;2023-04-15T17:33:29;8.63;;;5.32;;
77055;SDS011;67471;44.918;8.614;2023-04-15T17:36:53;10.30;;;5.07;;
77055;SDS011;67471;44.918;8.614;2023-04-15T17:40:16;11.80;;;5.50;;
77055;SDS011;67471;44.918;8.614;2023-04-15T17:43:43;10.63;;;5.65;;
77055;SDS011;67471;44.918;8.614;2023-04-15T17:47:09;8.88;;;5.50;;
77055;SDS011;67471;44.918;8.614;2023-04-15T17:54:03;11.38;;;7.10;;
77055;SDS011;67471;44.918;8.614;2023-04-15T17:57:27;12.07;;;5.78;;
77055;SDS011;67471;44.918;8.614;2023-04-15T18:00:54;13.90;;;7.05;;
77055;SDS011;67471;44.918;8.614;2023-04-15T18:04:18;12.65;;;7.30;;
77055;SDS011;67471;44.918;8.614;2023-04-15T18:07:41;13.48;;;6.97;;
77055;SDS011;67471;44.918;8.614;2023-04-15T18:11:04;12.45;;;6.63;;
77055;SDS011;67471;44.918;8.614;2023-04-15T18:14:31;12.82;;;6.25;;
77055;SDS011;67471;44.918;8.614;2023-04-15T18:17:56;15.20;;;6.35;;
77055;SDS011;67471;44.918;8.614;2023-04-15T18:21:00;11.88;;;6.43;;
77055;SDS011;67471;44.918;8.614;2023-04-15T18:24:04;10.00;;;5.72;;
77055;SDS011;67471;44.918;8.614;2023-04-15T18:27:08;8.52;;;5.55;;
77055;SDS011;67471;44.918;8.614;2023-04-15T18:30:12;13.90;;;5.72;;
77055;SDS011;67471;44.918;8.614;2023-04-15T18:33:16;9.02;;;5.88;;
77055;SDS011;67471;44.918;8.614;2023-04-15T18:36:20;11.85;;;5.60;;
77055;SDS011;67471;44.918;8.614;2023-04-15T18:39:24;11.70;;;5.53;;
77055;SDS011;67471;44.918;8.614;2023-04-15T18:42:29;13.50;;;6.25;;
77055;SDS011;67471;44.918;8.614;2023-04-15T18:45:32;10.63;;;6.47;;